Archiv-/Tagesdaten

--Timestamp---	Temp	Chill	HIndex	Humid	Dewpt	Wind	HiWind	WindDir	Rain	Barom	Solar	ET	UV
--------------	----	-----	------	-----	-----	----	------	-------	----	-----	-----	--	--
20071212 00:05	1.6	-0.3	1.6	94	0.8	6	11	292	0.00	1024.927	0	0.000	0
20071212 00:10	1.7	-0.3	1.7	94	0.8	6	14	270	0.00	1024.995	0	0.000	0
20071212 00:15	1.7	-0.3	1.7	94	0.8	6	11	292	0.00	1025.029	0	0.000	0
20071212 00:20	1.7	-0.3	1.7	94	0.8	6	14	270	0.00	1025.164	0	0.000	0
20071212 00:25	1.7	-0.8	1.7	94	0.8	8	16	292	0.00	1025.097	0	0.000	0
20071212 00:30	1.7	-1.2	1.7	94	0.9	10	19	292	0.00	1025.198	0	0.000	0
20071212 00:35	1.7	-1.2	1.7	94	0.9	10	16	292	0.00	1025.232	0	0.000	0
20071212 00:40	1.7	-0.7	1.7	94	0.9	8	16	292	0.00	1025.232	0	0.000	0
20071212 00:45	1.7	-1.5	1.7	93	0.7	11	19	315	0.00	1025.232	0	0.000	0
20071212 00:50	1.7	-1.2	1.7	93	0.7	10	19	292	0.00	1025.300	0	0.000	0
20071212 00:55	1.7	-1.5	1.7	93	0.7	11	18	292	0.20	1025.300	0	0.000	0
20071212 01:00	1.7	-1.2	1.7	93	0.7	10	21	292	0.00	1025.300	0	0.000	0
20071212 01:05	1.7	-0.8	1.7	93	0.7	8	24	292	0.00	1025.300	0	0.000	0
20071212 01:10	1.7	-1.2	1.7	93	0.7	10	21	315	0.00	1025.334	0	0.000	0
20071212 01:15	1.7	-1.2	1.7	93	0.7	10	19	292	0.00	1025.334	0	0.000	0
20071212 01:20	1.7	-0.8	1.7	93	0.7	8	18	292	0.00	1025.435	0	0.000	0
20071212 01:25	1.7	-1.2	1.7	93	0.7	10	19	292	0.00	1025.503	0	0.000	0
20071212 01:30	1.7	-1.2	1.7	93	0.7	10	18	315	0.00	1025.638	0	0.000	0
20071212 01:35	1.7	-0.2	1.7	93	0.7	6	14	292	0.00	1025.740	0	0.000	0
20071212 01:40	1.7	-1.2	1.7	93	0.7	10	18	315	0.00	1025.774	0	0.000	0
20071212 01:45	1.7	-0.7	1.7	93	0.7	8	16	315	0.00	1025.842	0	0.000	0
20071212 01:50	1.7	-1.2	1.7	93	0.7	10	21	315	0.00	1025.909	0	0.000	0
20071212 01:55	1.7	-1.5	1.7	93	0.7	11	18	315	0.00	1025.977	0	0.000	0
20071212 02:00	1.7	-1.2	1.7	93	0.7	10	16	292	0.00	1026.011	0	0.000	0
20071212 02:05	1.7	-1.2	1.7	93	0.7	10	16	315	0.00	1026.079	0	0.000	0
20071212 02:10	1.7	-1.2	1.7	93	0.7	10	18	292	0.00	1026.079	0	0.000	0
20071212 02:15	1.7	-1.2	1.7	93	0.7	10	21	292	0.00	1026.146	0	0.000	0
20071212 02:20	1.7	-0.7	1.7	93	0.7	8	18	292	0.00	1026.180	0	0.000	0
20071212 02:25	1.8	-1.5	1.8	93	0.8	11	19	292	0.00	1026.282	0	0.000	0
20071212 02:30	1.8	-1.1	1.8	93	0.8	10	21	292	0.00	1026.282	0	0.000	0
20071212 02:35	1.8	-1.1	1.8	93	0.8	10	18	292	0.00	1026.316	0	0.000	0
20071212 02:40	1.8	-0.1	1.8	93	0.8	6	18	270	0.00	1026.316	0	0.000	0
20071212 02:45	1.8	-0.6	1.8	93	0.8	8	18	270	0.00	1026.316	0	0.000	0
20071212 02:50	1.8	1.8	1.8	93	0.8	5	10	292	0.00	1026.282	0	0.000	0
20071212 02:55	1.8	-0.1	1.8	93	0.8	6	16	292	0.00	1026.350	0	0.000	0
20071212 03:00	1.8	-0.1	1.8	93	0.8	6	16	270	0.00	1026.350	0	0.000	0
20071212 03:05	1.8	-1.0	1.8	93	0.8	10	18	315	0.00	1026.519	0	0.000	0
20071212 03:10	1.9	-0.5	1.9	93	0.9	8	16	292	0.00	1026.451	0	0.000	0
20071212 03:15	1.9	-1.0	1.9	93	0.9	10	21	315	0.00	1026.519	0	0.000	0
20071212 03:20	1.9	-0.5	1.9	93	0.9	8	14	292	0.00	1026.553	0	0.000	0
20071212 03:25	1.9	-0.5	1.9	93	0.9	8	16	292	0.00	1026.587	0	0.000	0
20071212 03:30	1.9	-0.5	1.9	93	0.9	8	18	292	0.00	1026.654	0	0.000	0
20071212 03:35	1.9	-1.0	1.9	93	0.9	10	18	292	0.00	1026.688	0	0.000	0
20071212 03:40	1.9	-1.3	1.9	93	0.9	11	21	315	0.00	1026.688	0	0.000	0
20071212 03:45	1.8	-1.4	1.8	93	0.8	11	18	315	0.00	1026.688	0	0.000	0
20071212 03:50	1.8	-0.6	1.8	93	0.8	8	16	292	0.00	1026.756	0	0.000	0
20071212 03:55	1.8	-1.0	1.8	93	0.8	10	18	315	0.20	1026.756	0	0.000	0
20071212 04:00	1.8	-0.6	1.8	93	0.8	8	18	315	0.00	1026.824	0	0.000	0
20071212 04:05	1.8	-1.1	1.8	93	0.8	10	19	315	0.00	1026.891	0	0.000	0
20071212 04:10	1.8	-1.1	1.8	93	0.8	10	19	315	0.00	1026.891	0	0.000	0
20071212 04:15	1.8	-1.1	1.8	93	0.8	10	16	292	0.00	1026.993	0	0.000	0
20071212 04:20	1.8	-1.5	1.8	93	0.8	11	21	292	0.00	1027.027	0	0.000	0
20071212 04:25	1.8	-1.1	1.8	93	0.8	10	16	292	0.00	1027.162	0	0.000	0
20071212 04:30	1.8	-0.6	1.8	93	0.8	8	21	292	0.20	1027.162	0	0.000	0
20071212 04:35	1.8	-1.5	1.8	93	0.8	11	18	315	0.00	1027.162	0	0.000	0
20071212 04:40	1.8	-1.1	1.8	93	0.8	10	21	315	0.00	1027.162	0	0.000	0
20071212 04:45	1.8	-1.5	1.8	93	0.8	11	18	315	0.00	1027.196	0	0.000	0
20071212 04:50	1.7	-1.5	1.7	93	0.7	11	18	315	0.00	1027.196	0	0.000	0
20071212 04:55	1.7	-0.7	1.7	93	0.7	8	16	292	0.00	1027.298	0	0.000	0
20071212 05:00	1.7	-1.6	1.7	93	0.7	11	19	315	0.00	1027.230	0	0.000	0
20071212 05:05	1.7	-1.2	1.7	93	0.7	10	18	292	0.20	1027.332	0	0.000	0
20071212 05:10	1.6	-1.3	1.6	93	0.6	10	18	292	0.00	1027.332	0	0.000	0
20071212 05:15	1.6	-1.3	1.6	93	0.6	10	21	315	0.00	1027.365	0	0.000	0
20071212 05:20	1.6	-1.4	1.6	93	0.5	10	18	292	0.00	1027.467	0	0.000	0
20071212 05:25	1.6	-1.4	1.6	93	0.5	10	18	292	0.00	1027.467	0	0.000	0
20071212 05:30	1.5	-1.8	1.5	93	0.5	11	19	315	0.00	1027.569	0	0.000	0
20071212 05:35	1.5	-1.8	1.5	93	0.5	11	19	315	0.20	1027.569	0	0.000	0
20071212 05:40	1.4	-2.2	1.4	92	0.3	13	21	315	0.00	1027.603	0	0.000	0
20071212 05:45	1.4	-1.0	1.4	93	0.4	8	16	292	0.00	1027.670	0	0.000	0
20071212 05:50	1.4	-1.0	1.4	93	0.4	8	18	292	0.00	1027.738	0	0.000	0
20071212 05:55	1.4	-1.9	1.4	93	0.4	11	19	315	0.00	1027.806	0	0.000	0
20071212 06:00	1.4	-1.5	1.4	93	0.4	10	21	292	0.00	1027.873	0	0.000	0
20071212 06:05	1.4	-0.5	1.4	93	0.4	6	11	292	0.00	1027.907	0	0.000	0
20071212 06:10	1.4	-1.0	1.4	93	0.4	8	14	315	0.00	1027.975	0	0.000	0
20071212 06:15	1.4	-1.5	1.4	93	0.4	10	18	292	0.00	1028.043	0	0.000	0
20071212 06:20	1.4	-1.9	1.4	93	0.4	11	23	292	0.00	1028.043	0	0.000	0
20071212 06:25	1.4	-1.1	1.4	93	0.4	8	18	292	0.00	1028.077	0	0.000	0
20071212 06:30	1.4	-1.0	1.4	93	0.4	8	19	292	0.20	1028.110	0	0.000	0
20071212 06:35	1.4	-1.0	1.4	93	0.4	8	18	292	0.00	1028.212	0	0.000	0
20071212 06:40	1.4	-1.0	1.4	93	0.4	8	21	292	0.00	1028.246	0	0.000	0
20071212 06:45	1.4	-0.5	1.4	93	0.4	6	16	292	0.00	1028.280	0	0.000	0
20071212 06:50	1.4	-1.0	1.4	93	0.4	8	18	270	0.00	1028.280	0	0.000	0
20071212 06:55	1.5	-0.4	1.5	93	0.5	6	13	292	0.00	1028.348	0	0.000	0
20071212 07:00	1.5	-1.0	1.5	93	0.5	8	14	292	0.00	1028.381	0	0.000	0
20071212 07:05	1.5	1.5	1.5	93	0.5	5	10	270	0.00	1028.415	0	0.000	0
20071212 07:10	1.5	-0.4	1.5	93	0.5	6	14	292	0.00	1028.415	0	0.000	0
20071212 07:15	1.5	-0.4	1.5	93	0.5	6	10	292	0.00	1028.483	0	0.000	0
20071212 07:20	1.6	-0.4	1.6	93	0.5	6	16	270	0.20	1028.517	0	0.000	0
20071212 07:25	1.6	-0.4	1.6	93	0.5	6	14	292	0.00	1028.517	0	0.000	0
20071212 07:30	1.6	-0.9	1.6	93	0.5	8	11	292	0.00	1028.517	0	0.000	0
20071212 07:35	1.6	-0.4	1.6	93	0.5	6	11	270	0.00	1028.551	0	0.000	0
20071212 07:40	1.6	-0.3	1.6	93	0.6	6	11	270	0.00	1028.686	0	0.000	0
20071212 07:45	1.6	-0.3	1.6	93	0.6	6	16	292	0.00	1028.822	0	0.000	0
20071212 07:50	1.7	-0.3	1.7	93	0.7	6	16	292	0.00	1028.822	0	0.000	0
20071212 07:55	1.7	-1.2	1.7	93	0.7	10	18	292	0.00	1028.923	0	0.000	0
20071212 08:00	1.7	-0.3	1.7	93	0.7	6	11	270	0.00	1029.025	0	0.000	0
20071212 08:05	1.7	-0.8	1.7	93	0.7	8	16	292	0.00	1029.126	0	0.000	0
20071212 08:10	1.7	-0.2	1.7	93	0.7	6	14	270	0.00	1029.126	0	0.000	0
20071212 08:15	1.7	-0.7	1.7	93	0.7	8	18	292	0.00	1029.194	0	0.000	0
20071212 08:20	1.7	-0.7	1.7	93	0.7	8	16	292	0.00	1029.228	0	0.000	0
20071212 08:25	1.8	-0.6	1.8	93	0.8	8	19	292	0.00	1029.228	0	0.000	0
20071212 08:30	1.8	-0.1	1.8	93	0.8	6	18	292	0.00	1029.262	0	0.000	0
20071212 08:35	1.8	-0.6	1.8	93	0.8	8	16	292	0.00	1029.397	3	0.000	0
20071212 08:40	1.8	-0.1	1.8	93	0.8	6	14	270	0.00	1029.431	6	0.000	0
20071212 08:45	1.8	-0.1	1.8	93	0.8	6	10	270	0.00	1029.431	5	0.000	0
20071212 08:50	1.8	-0.1	1.8	93	0.8	6	11	270	0.00	1029.431	9	0.000	0
20071212 08:55	1.8	-0.6	1.8	92	0.7	8	18	292	0.00	1029.499	9	0.000	0
20071212 09:00	1.8	-0.6	1.8	92	0.7	8	16	270	0.00	1029.600	10	0.000	0
20071212 09:05	1.8	-0.1	1.8	92	0.7	6	13	292	0.00	1029.668	10	0.000	0
20071212 09:10	1.8	-0.1	1.8	92	0.7	6	11	292	0.00	1029.702	12	0.000	0
20071212 09:15	1.8	-0.6	1.8	92	0.7	8	18	270	0.00	1029.804	12	0.000	0
20071212 09:20	1.9	-0.5	1.9	92	0.7	8	13	270	0.00	1029.736	11	0.000	0
20071212 09:25	1.9	0.0	1.9	92	0.7	6	11	270	0.00	1029.838	12	0.000	0
20071212 09:30	1.9	-0.5	1.9	92	0.7	8	18	292	0.00	1029.939	15	0.000	0
20071212 09:35	1.9	0.0	1.9	92	0.7	6	11	292	0.00	1029.973	14	0.000	0
20071212 09:40	1.9	0.1	1.9	92	0.8	6	11	270	0.00	1030.007	21	0.000	0
20071212 09:45	1.9	-0.5	1.9	92	0.8	8	16	292	0.00	1029.973	25	0.000	0
20071212 09:50	1.9	0.1	1.9	92	0.8	6	14	270	0.00	1030.075	20	0.000	0
20071212 09:55	2.0	-0.4	2.0	92	0.8	8	16	292	0.00	1030.109	20	0.000	0
20071212 10:00	2.1	-0.3	2.1	92	0.9	8	16	270	0.00	1030.278	24	0.000	0
20071212 10:05	2.1	0.2	2.1	92	0.9	6	11	270	0.00	1030.379	20	0.000	0
20071212 10:10	2.1	-0.8	2.1	92	0.9	10	16	270	0.00	1030.379	25	0.000	0
20071212 10:15	2.1	-0.3	2.1	92	0.9	8	16	270	0.00	1030.379	25	0.000	0
20071212 10:20	2.1	-0.8	2.1	92	0.9	10	19	270	0.00	1030.379	26	0.000	0
20071212 10:25	2.1	-0.3	2.1	92	0.9	8	16	270	0.00	1030.413	25	0.000	0
20071212 10:30	2.1	-0.3	2.1	92	0.9	8	16	270	0.20	1030.515	20	0.000	0
20071212 10:35	2.1	-0.8	2.1	92	0.9	10	21	270	0.00	1030.549	21	0.000	0
20071212 10:40	2.1	-1.5	2.1	92	0.9	13	24	315	0.00	1030.616	21	0.000	0
20071212 10:45	2.0	-1.5	2.0	91	0.7	13	21	292	0.00	1030.583	24	0.000	0
20071212 10:50	2.0	-0.8	2.0	91	0.7	10	19	292	0.00	1030.549	24	0.000	0
20071212 10:55	2.0	-0.8	2.0	91	0.7	10	19	292	0.00	1030.583	25	0.000	0
20071212 11:00	2.0	-1.2	2.0	91	0.7	11	23	292	0.00	1030.583	34	0.020	0
20071212 11:05	2.0	-0.8	2.0	91	0.7	10	21	315	0.20	1030.650	41	0.000	0
20071212 11:10	2.0	-0.8	2.0	91	0.7	10	19	292	0.00	1030.583	41	0.000	0
20071212 11:15	2.1	-1.5	2.1	91	0.7	13	24	315	0.00	1030.650	43	0.000	0
20071212 11:20	2.0	-1.5	2.0	91	0.7	13	23	292	0.00	1030.616	39	0.000	0
20071212 11:25	2.1	-1.1	2.1	91	0.7	11	21	292	0.00	1030.616	33	0.000	0
20071212 11:30	2.1	-1.1	2.1	91	0.7	11	21	292	0.00	1030.616	31	0.000	0
20071212 11:35	2.1	-1.1	2.1	91	0.7	11	21	292	0.00	1030.718	29	0.000	0
20071212 11:40	2.1	-0.8	2.1	91	0.7	10	16	292	0.00	1030.718	26	0.000	0
20071212 11:45	2.1	-0.3	2.1	91	0.7	8	19	292	0.00	1030.820	27	0.000	0
20071212 11:50	2.1	-0.8	2.1	91	0.7	10	18	292	0.00	1030.718	28	0.000	0
20071212 11:55	2.1	-0.8	2.1	91	0.7	10	18	315	0.00	1030.718	28	0.000	0
20071212 12:00	2.1	-0.3	2.1	91	0.7	8	21	292	0.00	1030.786	32	0.020	0
20071212 12:05	2.1	-0.3	2.1	91	0.7	8	18	292	0.00	1030.854	27	0.000	0
20071212 12:10	2.1	-0.8	2.1	91	0.7	10	18	292	0.00	1030.887	31	0.000	0
20071212 12:15	2.1	-0.3	2.1	91	0.7	8	18	292	0.00	1030.887	22	0.000	0
20071212 12:20	2.1	-0.3	2.1	92	0.9	8	18	292	0.00	1030.921	17	0.000	0
20071212 12:25	2.0	-0.4	2.0	91	0.7	8	18	270	0.00	1030.887	12	0.000	0
20071212 12:30	1.9	-0.5	1.9	91	0.6	8	16	270	0.20	1030.921	14	0.000	0
20071212 12:35	1.9	-0.5	1.9	92	0.8	8	19	292	0.00	1030.955	13	0.000	0
20071212 12:40	1.9	-0.5	1.9	91	0.6	8	14	292	0.00	1030.955	11	0.000	0
20071212 12:45	1.9	-1.6	1.9	91	0.6	13	21	292	0.00	1030.921	11	0.000	0
20071212 12:50	1.9	-1.3	1.9	92	0.8	11	23	292	0.00	1030.955	12	0.000	0
20071212 12:55	1.9	-1.7	1.9	91	0.6	13	21	315	0.00	1030.989	15	0.000	0
20071212 13:00	1.8	-1.4	1.8	91	0.5	11	21	315	0.00	1031.023	14	0.020	0
20071212 13:05	1.8	-1.4	1.8	91	0.5	11	18	292	0.00	1031.091	13	0.000	0
20071212 13:10	1.8	-1.0	1.8	91	0.5	10	19	315	0.00	1031.158	14	0.000	0
20071212 13:15	1.8	-1.0	1.8	92	0.7	10	16	292	0.00	1031.057	15	0.000	0
20071212 13:20	1.8	-1.0	1.8	92	0.7	10	19	292	0.00	1031.158	16	0.000	0
20071212 13:25	1.8	-1.0	1.8	91	0.5	10	18	292	0.00	1031.124	17	0.000	0
20071212 13:30	1.8	-1.5	1.8	91	0.5	11	21	292	0.00	1031.192	19	0.000	0
20071212 13:35	1.8	-1.5	1.8	91	0.5	11	21	315	0.00	1031.260	21	0.000	0
20071212 13:40	1.7	-1.5	1.7	91	0.4	11	18	315	0.00	1031.260	21	0.000	0
20071212 13:45	1.7	-1.2	1.7	91	0.4	10	18	315	0.00	1031.260	24	0.000	0
20071212 13:50	1.7	-1.5	1.7	92	0.6	11	23	292	0.00	1031.260	23	0.000	0
20071212 13:55	1.7	-1.5	1.7	92	0.6	11	18	292	0.00	1031.226	19	0.000	0
20071212 14:00	1.7	-1.2	1.7	92	0.5	10	19	292	0.20	1031.260	20	0.020	0
20071212 14:05	1.6	-1.7	1.6	92	0.5	11	23	292	0.00	1031.260	21	0.000	0
20071212 14:10	1.6	-1.7	1.6	92	0.5	11	21	292	0.00	1031.395	20	0.000	0
20071212 14:15	1.6	-2.1	1.6	92	0.4	13	23	315	0.00	1031.328	17	0.000	0
20071212 14:20	1.6	-1.7	1.6	92	0.4	11	19	292	0.00	1031.260	16	0.000	0
20071212 14:25	1.6	-1.4	1.6	92	0.4	10	18	292	0.00	1031.361	13	0.000	0
20071212 14:30	1.6	-0.8	1.6	92	0.5	8	14	270	0.00	1031.395	9	0.000	0
20071212 14:35	1.6	-1.4	1.6	92	0.4	10	19	270	0.00	1031.463	11	0.000	0
20071212 14:40	1.6	-0.9	1.6	93	0.5	8	18	270	0.00	1031.463	11	0.000	0
20071212 14:45	1.6	-0.9	1.6	93	0.5	8	16	270	0.00	1031.463	12	0.000	0
20071212 14:50	1.6	-1.4	1.6	93	0.5	10	21	270	0.00	1031.565	10	0.000	0
20071212 14:55	1.5	-1.0	1.5	93	0.5	8	16	270	0.00	1031.599	7	0.000	0
20071212 15:00	1.6	-0.4	1.6	93	0.5	6	14	270	0.20	1031.632	7	0.000	0
20071212 15:05	1.6	-0.9	1.6	93	0.5	8	16	270	0.00	1031.632	7	0.000	0
20071212 15:10	1.6	-0.9	1.6	93	0.5	8	13	270	0.00	1031.632	7	0.000	0
20071212 15:15	1.5	-1.0	1.5	93	0.5	8	18	292	0.00	1031.632	4	0.000	0
20071212 15:20	1.5	-1.0	1.5	93	0.5	8	16	270	0.00	1031.666	5	0.000	0
20071212 15:25	1.5	-0.4	1.5	93	0.5	6	11	270	0.00	1031.734	3	0.000	0
20071212 15:30	1.4	-0.5	1.4	93	0.4	6	11	270	0.00	1031.768	0	0.000	0
20071212 15:35	1.4	-0.5	1.4	93	0.4	6	11	270	0.00	1031.768	5	0.000	0
20071212 15:40	1.5	1.5	1.5	93	0.5	5	13	270	0.00	1031.802	0	0.000	0
20071212 15:45	1.5	-1.0	1.5	93	0.5	8	14	270	0.20	1031.937	0	0.000	0
20071212 15:50	1.4	-1.0	1.4	93	0.4	8	16	270	0.00	1031.937	0	0.000	0
20071212 15:55	1.4	-1.0	1.4	93	0.4	8	14	270	0.00	1031.903	0	0.000	0
20071212 16:00	1.4	-1.0	1.4	93	0.4	8	13	270	0.00	1031.937	0	0.000	0
20071212 16:05	1.5	-0.4	1.5	93	0.5	6	11	270	0.00	1032.039	0	0.000	0
20071212 16:10	1.5	-1.0	1.5	93	0.5	8	16	270	0.00	1032.005	0	0.000	0
20071212 16:15	1.5	-1.0	1.5	93	0.5	8	16	270	0.00	1031.937	0	0.000	0
20071212 16:20	1.5	-1.8	1.5	93	0.5	11	18	292	0.00	1032.073	0	0.000	0
20071212 16:25	1.5	-1.8	1.5	93	0.5	11	18	315	0.20	1032.039	0	0.000	0
20071212 16:30	1.5	-1.8	1.5	93	0.5	11	18	292	0.00	1032.106	0	0.000	0
20071212 16:35	1.4	-1.0	1.4	93	0.4	8	19	292	0.00	1032.140	0	0.000	0
20071212 16:40	1.4	-1.9	1.4	93	0.4	11	21	292	0.00	1032.174	0	0.000	0
20071212 16:45	1.3	-1.6	1.3	93	0.3	10	18	292	0.20	1032.242	0	0.000	0
20071212 16:50	1.3	-2.0	1.3	93	0.3	11	18	292	0.00	1032.344	0	0.000	0
20071212 16:55	1.3	-2.0	1.3	93	0.3	11	19	315	0.00	1032.344	0	0.000	0
20071212 17:00	1.3	-1.6	1.3	93	0.3	10	18	315	0.00	1032.411	0	0.000	0
20071212 17:05	1.3	-1.6	1.3	93	0.3	10	18	292	0.00	1032.411	0	0.000	0
20071212 17:10	1.3	-1.6	1.3	93	0.3	10	19	292	0.20	1032.479	0	0.000	0
20071212 17:15	1.3	-1.6	1.3	93	0.3	10	21	292	0.00	1032.547	0	0.000	0
20071212 17:20	1.3	-2.4	1.3	93	0.3	13	21	315	0.00	1032.581	0	0.000	0
20071212 17:25	1.3	-2.0	1.3	93	0.3	11	19	315	0.00	1032.614	0	0.000	0
20071212 17:30	1.3	-0.7	1.3	93	0.3	6	14	292	0.20	1032.614	0	0.000	0
20071212 17:35	1.3	-0.7	1.3	93	0.3	6	18	292	0.00	1032.581	0	0.000	0
20071212 17:40	1.2	-1.4	1.2	93	0.2	8	21	292	0.00	1032.682	0	0.000	0
20071212 17:45	1.1	-1.9	1.1	93	0.1	10	19	315	0.20	1032.648	0	0.000	0
20071212 17:50	1.1	-1.5	1.1	93	0.1	8	16	315	0.00	1032.716	0	0.000	0
20071212 17:55	1.1	1.1	1.1	93	0.1	5	10	270	0.00	1032.750	0	0.000	0
20071212 18:00	1.0	-1.0	1.0	93	-0.0	6	13	270	0.00	1032.784	0	0.000	0
20071212 18:05	0.9	-1.2	0.9	93	-0.1	6	18	270	0.20	1032.784	0	0.000	0
20071212 18:10	0.8	-1.3	0.8	93	-0.2	6	11	270	0.00	1032.818	0	0.000	0
20071212 18:15	0.7	-1.4	0.7	93	-0.3	6	11	270	0.00	1032.851	0	0.000	0
20071212 18:20	0.6	0.6	0.6	93	-0.4	5	10	270	0.00	1032.919	0	0.000	0
20071212 18:25	0.4	0.4	0.4	93	-0.6	5	10	270	0.00	1032.919	0	0.000	0
20071212 18:30	0.3	0.3	0.3	93	-0.7	5	10	270	0.00	1033.021	0	0.000	0
20071212 18:35	0.3	0.3	0.3	93	-0.7	5	6	292	0.00	1032.953	0	0.000	0
20071212 18:40	0.2	0.2	0.2	93	-0.8	3	6	292	0.00	1033.055	0	0.000	0
20071212 18:45	0.2	0.2	0.2	94	-0.7	3	8	270	0.00	1033.089	0	0.000	0
20071212 18:50	0.2	0.2	0.2	93	-0.8	3	8	292	0.00	1033.089	0	0.000	0
20071212 18:55	0.1	0.1	0.1	94	-0.7	3	6	292	0.00	1033.122	0	0.000	0
20071212 19:00	0.1	0.1	0.1	94	-0.7	5	8	292	0.00	1033.122	0	0.000	0
20071212 19:05	0.1	0.1	0.1	94	-0.7	5	8	292	0.00	1033.156	0	0.000	0
20071212 19:10	0.1	0.1	0.1	94	-0.7	3	5	292	0.20	1033.190	0	0.000	0
20071212 19:15	0.1	0.1	0.1	94	-0.7	2	6	292	0.00	1033.224	0	0.000	0
20071212 19:20	0.1	0.1	0.1	94	-0.8	3	6	292	0.00	1033.258	0	0.000	0
20071212 19:25	0.0	0.0	0.0	94	-0.8	3	5	292	0.00	1033.326	0	0.000	0
20071212 19:30	0.0	0.0	0.0	94	-0.8	2	5	292	0.00	1033.359	0	0.000	0
20071212 19:35	-0.1	-0.1	-0.1	94	-0.9	2	6	292	0.00	1033.393	0	0.000	0
20071212 19:40	-0.1	-0.1	-0.1	94	-0.9	3	5	292	0.00	1033.427	0	0.000	0
20071212 19:45	0.0	0.0	0.0	94	-0.8	3	5	292	0.00	1033.495	0	0.000	0
20071212 19:50	-0.1	-0.1	-0.1	94	-0.9	3	6	292	0.00	1033.529	0	0.000	0
20071212 19:55	-0.1	-0.1	-0.1	94	-0.9	5	8	292	0.00	1033.495	0	0.000	0
20071212 20:00	-0.1	-0.1	-0.1	94	-0.9	3	6	292	0.00	1033.563	0	0.000	0
20071212 20:05	-0.1	-0.1	-0.1	94	-0.9	3	5	292	0.00	1033.563	0	0.000	0
20071212 20:10	0.0	0.0	0.0	94	-0.8	3	6	292	0.00	1033.630	0	0.000	0
20071212 20:15	0.0	0.0	0.0	94	-0.8	3	6	292	0.00	1033.630	0	0.000	0
20071212 20:20	0.1	0.1	0.1	94	-0.8	3	6	292	0.00	1033.529	0	0.000	0
20071212 20:25	0.0	0.0	0.0	94	-0.8	3	6	292	0.00	1033.563	0	0.000	0
20071212 20:30	0.1	0.1	0.1	94	-0.8	3	6	292	0.00	1033.630	0	0.000	0
20071212 20:35	0.1	0.1	0.1	94	-0.8	3	10	270	0.00	1033.664	0	0.000	0
20071212 20:40	0.1	0.1	0.1	94	-0.8	3	6	270	0.00	1033.698	0	0.000	0
20071212 20:45	0.1	0.1	0.1	94	-0.7	3	6	270	0.00	1033.732	0	0.000	0
20071212 20:50	0.1	0.1	0.1	94	-0.7	5	8	270	0.00	1033.732	0	0.000	0
20071212 20:55	0.2	0.2	0.2	94	-0.7	3	6	270	0.00	1033.800	0	0.000	0
20071212 21:00	0.2	0.2	0.2	94	-0.7	3	6	270	0.00	1033.800	0	0.000	0
20071212 21:05	0.2	0.2	0.2	94	-0.7	3	6	270	0.00	1033.664	0	0.000	0
20071212 21:10	0.1	0.1	0.1	94	-0.7	3	6	270	0.00	1033.664	0	0.000	0
20071212 21:15	0.1	0.1	0.1	94	-0.8	3	8	292	0.00	1033.596	0	0.000	0
20071212 21:20	0.1	0.1	0.1	94	-0.8	5	8	270	0.00	1033.596	0	0.000	0
20071212 21:25	0.1	0.1	0.1	94	-0.8	3	8	270	0.00	1033.630	0	0.000	0
20071212 21:30	0.1	0.1	0.1	94	-0.8	3	5	270	0.00	1033.664	0	0.000	0
20071212 21:35	0.1	0.1	0.1	94	-0.8	2	5	270	0.00	1033.630	0	0.000	0
20071212 21:40	0.1	0.1	0.1	94	-0.7	3	6	270	0.00	1033.630	0	0.000	0
20071212 21:45	0.1	0.1	0.1	94	-0.7	3	6	292	0.00	1033.664	0	0.000	0
20071212 21:50	0.2	0.2	0.2	94	-0.7	5	8	292	0.00	1033.698	0	0.000	0
20071212 21:55	0.2	0.2	0.2	94	-0.6	5	8	292	0.00	1033.664	0	0.000	0
20071212 22:00	0.3	0.3	0.3	95	-0.4	2	8	292	0.20	1033.867	0	0.000	0
20071212 22:05	0.3	0.3	0.3	95	-0.4	2	5	292	0.00	1033.867	0	0.000	0
20071212 22:10	0.3	0.3	0.3	95	-0.4	3	5	292	0.00	1033.833	0	0.000	0
20071212 22:15	0.3	0.3	0.3	95	-0.4	2	5	292	0.00	1033.867	0	0.000	0
20071212 22:20	0.3	0.3	0.3	95	-0.4	2	5	292	0.00	1033.833	0	0.000	0
20071212 22:25	0.4	0.4	0.4	95	-0.3	2	5	292	0.00	1033.833	0	0.000	0
20071212 22:30	0.4	0.4	0.4	95	-0.3	2	5	292	0.00	1033.901	0	0.000	0
20071212 22:35	0.4	0.4	0.4	95	-0.3	2	5	292	0.20	1033.901	0	0.000	0
20071212 22:40	0.5	0.5	0.5	95	-0.2	3	5	292	0.00	1033.867	0	0.000	0
20071212 22:45	0.6	0.6	0.6	95	-0.2	2	5	292	0.00	1033.901	0	0.000	0
20071212 22:50	0.6	0.6	0.6	95	-0.1	3	6	292	0.00	1033.901	0	0.000	0
20071212 22:55	0.7	0.7	0.7	95	-0.0	3	5	292	0.00	1033.935	0	0.000	0
20071212 23:00	0.7	0.7	0.7	95	0.0	3	6	292	0.00	1033.969	0	0.000	0
20071212 23:05	0.8	0.8	0.8	95	0.1	3	6	292	0.00	1034.003	0	0.000	0
20071212 23:10	0.8	0.8	0.8	95	0.1	2	5	292	0.00	1034.037	0	0.000	0
20071212 23:15	0.8	0.8	0.8	95	0.1	3	8	292	0.20	1033.935	0	0.000	0
20071212 23:20	0.9	0.9	0.9	95	0.2	3	8	292	0.00	1033.969	0	0.000	0
20071212 23:25	0.9	0.9	0.9	95	0.2	5	6	292	0.00	1033.901	0	0.000	0
20071212 23:30	1.0	1.0	1.0	95	0.3	3	8	292	0.00	1033.867	0	0.000	0
20071212 23:35	1.0	1.0	1.0	95	0.3	5	10	292	0.00	1033.867	0	0.000	0
20071212 23:40	1.1	1.1	1.1	95	0.3	5	10	292	0.00	1033.935	0	0.000	0
20071212 23:45	1.1	1.1	1.1	95	0.4	5	10	292	0.20	1033.935	0	0.000	0
20071212 23:50	1.2	1.2	1.2	95	0.5	5	10	292	0.00	1034.003	0	0.000	0
20071212 23:55	1.2	-0.8	1.2	95	0.5	6	11	292	0.00	1034.037	0	0.000	0
20071212 24:00	1.2	1.2	1.2	95	0.5	5	10	292	0.00	1034.003	0	0.000	0



Please note the license to use and transfer of this data:
http://creativecommons.org/licenses/by-nc-sa/3.0/deed.en

Bitte beachten sie die Lizenz zur Verwertung und Weitergabe der Daten:
http://creativecommons.org/licenses/by-nc-sa/3.0/deed.de

zurück zur Übersicht der Archivdaten (Monats und Tagesdaten)

Cookies helfen bei der Bereitstellung von Inhalten. Durch die Nutzung dieser Seiten erklärst du dich damit einverstanden, dass Cookies auf deinem Rechner gespeichert werden. Weitere Information